Time;durP1;ratioP1;P1;durP2;ratioP2;P2;SDS_P1;SDS_P2;PMS_P1;PMS_P2;Temp;Humidity;BMP_temperature;BMP_pressure;BME280_temperature;BME280_humidity;BME280_pressure;Samples;Min_cycle;Max_cycle;Signal;HPM_P1;HPM_P2
2021/07/28 00:03:23;;;;;;;8.00;6.80;;;;;;;18.14;72.06;99571.18;255048;1104;115471;-66
2021/07/28 00:08:28;;;;;;;12.18;6.93;;;;;;;18.14;71.99;99573.88;254626;1096;115355;-66
2021/07/28 00:13:33;;;;;;;15.75;8.15;;;;;;;18.19;72.26;99563.03;253616;1104;115473;-66
2021/07/28 00:19:29;;;;;;;;;;;;;;;18.07;72.11;99563.43;256502;1103;115851;-66
2021/07/28 00:24:04;;;;;;;14.73;7.60;;;;;;;17.91;72.06;99561.21;257149;1103;103098;-67
2021/07/28 00:29:09;;;;;;;7.35;6.30;;;;;;;17.79;72.25;99553.51;255985;1102;116442;-66
2021/07/28 00:34:17;;;;;;;7.00;6.33;;;;;;;17.70;72.57;99558.75;254895;1097;115691;-65
2021/07/28 00:39:21;;;;;;;8.88;8.08;;;;;;;17.61;72.73;99563.11;254362;1104;115866;-67
2021/07/28 00:44:25;;;;;;;7.70;7.10;;;;;;;17.57;73.15;99548.59;254166;1102;115267;-67
2021/07/28 00:49:34;;;;;;;15.30;8.55;;;;;;;17.61;73.24;99535.36;255558;1096;114993;-67
2021/07/28 00:54:42;;;;;;;9.55;8.70;;;;;;;17.62;73.41;99545.85;254397;1101;114810;-67
2021/07/28 00:59:47;;;;;;;11.63;7.88;;;;;;;17.74;73.75;99548.97;255122;1097;115573;-67
2021/07/28 01:04:54;;;;;;;8.87;7.20;;;;;;;17.88;74.05;99549.10;255158;1102;115734;-66
2021/07/28 01:09:58;;;;;;;11.80;8.43;;;;;;;17.87;73.32;99542.10;257365;1101;115020;-67
2021/07/28 01:15:03;;;;;;;10.93;7.03;;;;;;;17.82;73.35;99532.17;257350;1101;115942;-67
2021/07/28 01:20:10;;;;;;;12.40;9.70;;;;;;;17.74;73.23;99546.27;257381;1102;117666;-67
2021/07/28 01:25:15;;;;;;;11.43;8.73;;;;;;;17.78;73.37;99541.92;256358;1102;116110;-66
2021/07/28 01:30:21;;;;;;;9.88;8.93;;;;;;;17.72;72.95;99540.39;257063;1103;117352;-67
2021/07/28 01:35:28;;;;;;;11.90;8.03;;;;;;;17.65;73.38;99533.73;256947;1102;116460;-68
2021/07/28 01:40:39;;;;;;;16.80;8.95;;;;;;;17.63;73.35;99542.07;257364;1101;116542;-67
2021/07/28 01:45:44;;;;;;;14.30;8.37;;;;;;;17.66;73.54;99541.53;256995;1101;117935;-67
2021/07/28 01:50:49;;;;;;;8.33;7.27;;;;;;;17.75;73.66;99531.70;255480;1103;116066;-67
2021/07/28 01:55:55;;;;;;;14.45;8.30;;;;;;;17.68;73.72;99525.08;253928;1102;116409;-67
2021/07/28 02:01:00;;;;;;;11.65;8.28;;;;;;;17.61;73.79;99514.59;255376;1104;116645;-67
2021/07/28 02:06:07;;;;;;;13.48;7.93;;;;;;;17.64;74.27;99522.11;254707;1097;116043;-67
2021/07/28 02:11:13;;;;;;;13.45;8.63;;;;;;;17.57;73.71;99518.14;253998;1102;115405;-68
2021/07/28 02:16:19;;;;;;;;;;;;;;;17.44;73.68;99522.30;255203;1103;114748;-68
2021/07/28 02:21:24;;;;;;;11.90;6.70;;;;;;;17.32;73.69;99524.59;256379;1101;102939;-68
2021/07/28 02:26:29;;;;;;;7.85;7.18;;;;;;;17.22;73.52;99533.56;253980;1102;117216;-68
2021/07/28 02:31:35;;;;;;;14.63;9.23;;;;;;;17.12;74.11;99530.98;255548;1097;116074;-67
2021/07/28 02:36:40;;;;;;;17.65;8.78;;;;;;;17.04;74.43;99520.81;254177;1101;116541;-67
2021/07/28 02:41:44;;;;;;;8.65;7.68;;;;;;;16.97;74.24;99523.82;255686;1103;116578;-68
2021/07/28 02:46:49;;;;;;;16.25;8.60;;;;;;;16.96;74.55;99524.09;255035;1101;204509;-67
2021/07/28 02:51:55;;;;;;;21.20;8.78;;;;;;;17.04;74.79;99516.23;253805;1100;117084;-67
2021/07/28 02:57:04;;;;;;;10.48;8.95;;;;;;;17.15;74.96;99512.34;255957;1102;116472;-67
2021/07/28 03:02:09;;;;;;;12.30;9.68;;;;;;;17.23;74.94;99512.82;254701;1103;117035;-67
2021/07/28 03:07:14;;;;;;;8.93;8.08;;;;;;;17.25;74.61;99514.15;253868;1099;116302;-67
2021/07/28 03:12:19;;;;;;;11.75;10.58;;;;;;;17.13;74.49;99519.90;255071;1103;116218;-68
2021/07/28 03:17:25;;;;;;;14.18;10.40;;;;;;;17.15;74.79;99527.70;257111;1104;116645;-69
2021/07/28 03:22:30;;;;;;;11.08;9.45;;;;;;;17.20;75.00;99519.58;253787;1104;117006;-67
2021/07/28 03:27:34;;;;;;;12.63;9.85;;;;;;;17.30;74.74;99524.08;257102;1103;117038;-67
2021/07/28 03:32:40;;;;;;;12.30;9.23;;;;;;;17.47;75.15;99516.34;256889;1103;117087;-67
2021/07/28 03:37:45;;;;;;;11.17;8.50;;;;;;;17.61;74.36;99516.48;257047;1102;115768;-67
2021/07/28 03:42:50;;;;;;;10.97;9.70;;;;;;;17.68;74.66;99512.40;257173;1104;115751;-67
2021/07/28 03:47:55;;;;;;;12.00;10.00;;;;;;;17.88;75.05;99507.85;257061;1104;115392;-67
2021/07/28 03:53:01;;;;;;;21.70;12.00;;;;;;;18.13;74.75;99510.23;257068;1102;115403;-67
2021/07/28 03:58:06;;;;;;;16.13;10.53;;;;;;;18.61;74.38;99504.75;257287;1103;115953;-67
2021/07/28 04:03:10;;;;;;;12.67;11.30;;;;;;;18.81;74.37;99505.22;256086;1103;115833;-68
2021/07/28 04:08:15;;;;;;;11.18;10.15;;;;;;;18.99;74.16;99505.47;255347;1101;117235;-67
2021/07/28 04:13:20;;;;;;;11.55;9.83;;;;;;;19.18;74.29;99504.34;256107;1104;118373;-65
2021/07/28 04:18:24;;;;;;;11.23;10.13;;;;;;;19.41;74.00;99502.58;254624;1096;116725;-66
2021/07/28 04:23:29;;;;;;;11.10;10.10;;;;;;;19.62;74.02;99497.61;253773;1102;115785;-67
2021/07/28 04:28:33;;;;;;;10.55;9.53;;;;;;;19.84;73.91;99500.43;254821;1103;117028;-68
2021/07/28 04:33:39;;;;;;;12.68;10.55;;;;;;;20.03;73.99;99494.09;256463;1102;116431;-67
2021/07/28 04:38:44;;;;;;;10.00;9.00;;;;;;;20.09;73.76;99501.00;255498;1102;116095;-67
2021/07/28 04:43:50;;;;;;;13.28;10.95;;;;;;;20.06;73.98;99496.19;254989;1101;115401;-67
2021/07/28 04:48:55;;;;;;;;;;;;;;;20.08;73.97;99488.58;255389;1101;116447;-67
2021/07/28 04:54:02;;;;;;;17.95;10.68;;;;;;;20.14;74.06;99488.17;256194;1103;103009;-67
2021/07/28 04:59:07;;;;;;;12.60;10.90;;;;;;;20.27;74.32;99480.30;254385;1103;116993;-67
2021/07/28 05:04:13;;;;;;;11.63;10.43;;;;;;;20.43;74.41;99481.61;255985;1102;116446;-67
2021/07/28 05:09:19;;;;;;;13.23;9.53;;;;;;;20.58;74.18;99473.11;255113;1104;116745;-65
2021/07/28 05:14:25;;;;;;;9.65;8.60;;;;;;;20.62;73.91;99476.02;254179;1103;116486;-67
2021/07/28 05:19:34;;;;;;;15.23;10.33;;;;;;;20.72;73.92;99464.95;256253;1103;116866;-67
2021/07/28 05:24:39;;;;;;;10.58;9.63;;;;;;;20.98;73.73;99465.11;257461;1103;116244;-67
2021/07/28 05:29:44;;;;;;;9.40;8.20;;;;;;;21.36;73.45;99469.02;257393;1104;117283;-67
2021/07/28 05:34:52;;;;;;;10.43;7.78;;;;;;;21.76;73.48;99469.78;257067;1104;116403;-67
2021/07/28 05:39:58;;;;;;;12.30;9.47;;;;;;;22.23;72.97;99461.92;257133;1103;116553;-67
2021/07/28 05:45:04;;;;;;;8.83;7.93;;;;;;;22.48;72.13;99461.13;256991;1103;115583;-67
2021/07/28 05:50:10;;;;;;;8.23;7.43;;;;;;;22.57;71.85;99460.34;257356;1104;115763;-68
2021/07/28 05:55:15;;;;;;;7.57;6.50;;;;;;;22.65;71.49;99457.59;257372;1104;116587;-67
2021/07/28 06:00:20;;;;;;;7.45;6.85;;;;;;;23.04;70.98;99462.03;257421;1102;115854;-68
2021/07/28 06:05:26;;;;;;;6.45;5.95;;;;;;;23.42;70.39;99461.28;257316;1102;115910;-68
2021/07/28 06:10:32;;;;;;;8.75;7.98;;;;;;;23.77;69.69;99456.50;255561;1102;115838;-68
2021/07/28 06:15:36;;;;;;;9.98;7.10;;;;;;;25.33;68.55;99450.54;255952;1102;116558;-68
2021/07/28 06:20:45;;;;;;;7.08;6.30;;;;;;;27.98;64.61;99461.92;257122;1103;116168;-69
2021/07/28 06:25:50;;;;;;;10.23;8.07;;;;;;;28.51;62.51;99462.28;257134;1103;115780;-69
2021/07/28 06:30:55;;;;;;;20.25;7.60;;;;;;;27.99;62.00;99473.67;254666;1096;115694;-69
2021/07/28 06:36:01;;;;;;;11.67;8.40;;;;;;;27.66;62.13;99454.91;254288;1104;115441;-67
2021/07/28 06:41:06;;;;;;;11.70;8.23;;;;;;;27.83;62.17;99458.05;257090;1101;115523;-68
2021/07/28 06:46:12;;;;;;;13.83;8.35;;;;;;;28.02;61.56;99462.00;254242;1100;116031;-68
2021/07/28 06:51:17;;;;;;;11.00;9.03;;;;;;;28.30;61.18;99457.16;253920;1096;116185;-68
2021/07/28 06:56:23;;;;;;;11.50;9.18;;;;;;;28.60;60.50;99465.61;254503;1096;115524;-67
2021/07/28 07:01:31;;;;;;;10.53;8.00;;;;;;;28.71;60.21;99458.39;254111;1104;115798;-68
2021/07/28 07:06:42;;;;;;;9.53;8.68;;;;;;;29.18;60.18;99464.75;257185;1104;116067;-68
2021/07/28 07:11:47;;;;;;;9.73;7.65;;;;;;;29.55;58.95;99462.27;254743;1103;116524;-68
2021/07/28 07:16:51;;;;;;;8.76;7.46;;;;;;;30.31;58.38;99450.03;256022;1104;115825;-67
2021/07/28 07:21:56;;;;;;;10.43;7.37;;;;;;;31.44;57.65;99449.70;257095;1103;115842;-69
2021/07/28 07:27:01;;;;;;;7.40;6.37;;;;;;;32.43;56.50;99439.30;257057;1104;115287;-67
2021/07/28 07:32:06;;;;;;;8.45;6.60;;;;;;;33.40;55.80;99430.05;256869;1103;115797;-67
2021/07/28 07:37:12;;;;;;;6.90;5.83;;;;;;;34.05;53.54;99433.52;253675;1104;116245;-67
2021/07/28 07:42:17;;;;;;;6.65;6.05;;;;;;;34.39;51.67;99431.84;256991;1103;115756;-67
2021/07/28 07:47:22;;;;;;;7.75;5.40;;;;;;;34.75;51.25;99424.14;257098;1104;115068;-68
2021/07/28 07:52:26;;;;;;;4.95;4.55;;;;;;;35.14;50.17;99423.11;256590;1104;115057;-67
2021/07/28 07:57:32;;;;;;;6.80;4.57;;;;;;;35.32;48.63;99420.21;253636;1098;115493;-67
2021/07/28 08:02:38;;;;;;;6.93;5.50;;;;;;;34.95;48.20;99412.55;257175;1102;115620;-69
2021/07/28 08:07:43;;;;;;;6.35;4.98;;;;;;;34.77;47.96;99402.37;254161;1104;115397;-69
2021/07/28 08:12:48;;;;;;;5.53;5.13;;;;;;;34.98;47.73;99412.53;253668;1104;114694;-68
2021/07/28 08:17:54;;;;;;;5.35;4.95;;;;;;;35.24;47.14;99411.13;255945;1104;116125;-69
2021/07/28 08:22:59;;;;;;;5.38;4.95;;;;;;;35.68;45.92;99404.82;257158;1103;114643;-69
2021/07/28 08:28:04;;;;;;;7.30;5.77;;;;;;;35.69;45.38;99405.61;257160;1104;115117;-69
2021/07/28 08:33:09;;;;;;;5.68;5.28;;;;;;;35.56;44.29;99402.55;254365;1104;115186;-69
2021/07/28 08:38:14;;;;;;;7.53;5.80;;;;;;;35.36;44.40;99409.89;255317;1102;114828;-68
2021/07/28 08:43:29;;;;;;;15.88;5.63;;;;;;;35.07;44.82;99393.48;253708;1103;115040;-68
2021/07/28 08:48:36;;;;;;;6.27;5.47;;;;;;;35.26;45.33;99399.64;253601;1103;115079;-68
2021/07/28 08:53:41;;;;;;;6.43;5.90;;;;;;;35.13;44.37;99395.81;257185;1101;115408;-69
2021/07/28 08:58:45;;;;;;;6.15;5.35;;;;;;;35.30;44.30;99390.14;255086;1096;118108;-69
2021/07/28 09:03:51;;;;;;;5.67;5.27;;;;;;;34.85;44.07;99403.14;253782;1101;114414;-69
2021/07/28 09:09:00;;;;;;;6.43;5.83;;;;;;;34.92;43.81;99393.98;254511;1103;115102;-69
2021/07/28 09:14:19;;;;;;;7.68;6.18;;;;;;;34.55;43.28;99400.91;253823;1097;115416;-69
2021/07/28 09:19:46;;;;;;;6.98;6.28;;;;;;;34.43;43.70;99385.57;255756;1104;115529;-69
2021/07/28 09:25:32;;;;;;;5.88;5.48;;;;;;;34.04;42.95;99393.22;254086;1097;115587;-69
2021/07/28 09:30:37;;;;;;;8.60;7.00;;;;;;;33.93;44.28;99387.75;256472;1102;115843;-69
2021/07/28 09:35:54;;;;;;;6.70;6.10;;;;;;;33.68;43.82;99393.29;255356;1101;115495;-69
2021/07/28 09:41:26;;;;;;;6.30;5.80;;;;;;;33.76;43.96;99380.25;253677;1104;115980;-69
2021/07/28 09:46:36;;;;;;;7.90;6.50;;;;;;;33.42;43.50;99383.47;257093;1103;115755;-69
2021/07/28 09:51:48;;;;;;;7.08;6.33;;;;;;;33.55;44.15;99375.56;256296;1103;115012;-69
2021/07/28 09:56:54;;;;;;;6.53;6.03;;;;;;;33.80;43.63;99372.77;255433;1100;114458;-69
2021/07/28 10:02:00;;;;;;;6.93;6.20;;;;;;;33.96;43.91;99375.86;253799;1103;115230;-69
2021/07/28 10:07:07;;;;;;;5.43;4.63;;;;;;;34.21;42.41;99375.78;255260;1103;115739;-70
2021/07/28 10:12:13;;;;;;;3.88;3.40;;;;;;;34.23;41.10;99373.40;257214;1103;114812;-69
2021/07/28 10:17:18;;;;;;;4.25;3.95;;;;;;;34.35;40.62;99367.42;257122;1102;115804;-70
2021/07/28 10:22:23;;;;;;;5.70;4.33;;;;;;;34.53;40.97;99369.31;257202;1103;115621;-71
2021/07/28 10:27:29;;;;;;;5.13;4.63;;;;;;;34.18;40.07;99365.52;257247;1101;115087;-69
2021/07/28 10:32:35;;;;;;;5.53;5.13;;;;;;;34.14;40.46;99367.50;257236;1101;115298;-70
2021/07/28 10:37:39;;;;;;;5.23;4.73;;;;;;;34.21;39.59;99353.65;257247;1101;115276;-69
2021/07/28 10:42:44;;;;;;;4.83;4.20;;;;;;;34.17;39.50;99365.91;253872;1101;115229;-69
2021/07/28 10:47:50;;;;;;;6.50;5.23;;;;;;;34.48;40.35;99355.89;253645;1097;114942;-68
2021/07/28 10:52:55;;;;;;;5.30;4.80;;;;;;;34.50;40.00;99345.21;253832;1101;115138;-70
2021/07/28 10:58:10;;;;;;;6.30;5.28;;;;;;;34.42;39.54;99341.69;257192;1101;115175;-70
2021/07/28 11:03:17;;;;;;;5.05;4.60;;;;;;;34.19;39.22;99333.89;256018;1101;116071;-70
2021/07/28 11:08:30;;;;;;;5.68;5.23;;;;;;;33.67;39.85;99333.67;253950;1103;115213;-70
2021/07/28 11:13:35;;;;;;;5.23;4.73;;;;;;;33.58;39.28;99330.55;254332;1104;115523;-69
2021/07/28 11:18:49;;;;;;;5.75;5.25;;;;;;;33.83;40.55;99324.97;254213;1103;115096;-70
2021/07/28 11:24:00;;;;;;;5.03;4.63;;;;;;;33.84;40.46;99334.05;255224;1103;116121;-70
2021/07/28 11:29:09;;;;;;;6.80;6.20;;;;;;;33.76;40.43;99328.52;257150;1101;115478;-70
2021/07/28 11:34:23;;;;;;;5.28;4.88;;;;;;;34.09;40.75;99318.13;254462;1102;115301;-69
2021/07/28 11:39:28;;;;;;;10.58;5.83;;;;;;;34.45;39.56;99311.23;253621;1101;114802;-69
2021/07/28 11:44:43;;;;;;;5.60;4.63;;;;;;;34.55;38.94;99317.87;253690;1102;115642;-70
2021/07/28 11:50:01;;;;;;;5.55;5.05;;;;;;;34.57;38.79;99317.47;253748;1096;115391;-69
2021/07/28 11:55:26;;;;;;;12.75;5.33;;;;;;;34.72;38.28;99308.66;256824;1101;115277;-68
2021/07/28 12:00:36;;;;;;;6.50;4.75;;;;;;;34.92;37.95;99300.60;257259;1101;115267;-69
2021/07/28 12:05:59;;;;;;;5.03;4.03;;;;;;;35.09;37.34;99302.44;257134;1102;115529;-69
2021/07/28 12:11:07;;;;;;;4.78;4.33;;;;;;;35.13;36.32;99293.31;257010;1101;116567;-69
2021/07/28 12:16:13;;;;;;;6.30;4.90;;;;;;;35.25;35.74;99296.33;257163;1102;115277;-70
2021/07/28 12:21:17;;;;;;;4.63;4.27;;;;;;;35.26;35.96;99300.67;257186;1101;114964;-70
2021/07/28 12:26:46;;;;;;;4.63;4.23;;;;;;;35.29;35.79;99290.78;257045;1102;116199;-70
2021/07/28 12:31:50;;;;;;;5.28;4.88;;;;;;;35.36;36.12;99288.73;257291;1103;115135;-70
2021/07/28 12:36:54;;;;;;;5.88;5.43;;;;;;;34.89;35.35;99289.55;257147;1101;115267;-70
2021/07/28 12:41:58;;;;;;;4.85;4.55;;;;;;;34.48;35.71;99286.71;255533;1102;115441;-67
2021/07/28 12:47:03;;;;;;;5.03;4.63;;;;;;;34.13;36.20;99288.48;253743;1104;115255;-68
2021/07/28 12:52:08;;;;;;;4.88;4.48;;;;;;;33.98;36.69;99284.98;253605;1102;115341;-70
2021/07/28 12:57:13;;;;;;;6.78;6.03;;;;;;;33.61;37.48;99279.22;253572;1102;115043;-68
2021/07/28 13:02:17;;;;;;;6.33;5.75;;;;;;;33.14;37.97;99279.30;253460;1103;115237;-70
2021/07/28 13:07:34;;;;;;;5.78;5.20;;;;;;;32.64;38.69;99286.81;253562;1096;114858;-69
2021/07/28 13:12:38;;;;;;;6.35;5.33;;;;;;;32.40;39.50;99271.82;253572;1101;115473;-69
2021/07/28 13:17:42;;;;;;;8.27;6.20;;;;;;;32.38;40.04;99262.36;253528;1103;114336;-69
2021/07/28 13:22:46;;;;;;;6.05;5.48;;;;;;;32.29;40.20;99259.97;253648;1101;114637;-71
2021/07/28 13:27:52;;;;;;;6.85;6.20;;;;;;;32.56;39.97;99251.32;253615;1101;114967;-71
2021/07/28 13:32:57;;;;;;;6.57;5.47;;;;;;;32.71;39.77;99245.42;253599;1103;115431;-70
2021/07/28 13:38:01;;;;;;;7.05;6.48;;;;;;;32.62;39.13;99236.74;253728;1104;116041;-68
2021/07/28 13:43:05;;;;;;;8.03;7.33;;;;;;;32.29;39.09;99237.12;254845;1101;115221;-71
2021/07/28 13:48:10;;;;;;;7.98;7.25;;;;;;;31.96;40.15;99232.70;257240;1101;114904;-69
2021/07/28 13:53:14;;;;;;;8.38;7.28;;;;;;;32.06;42.01;99218.95;253807;1103;115802;-69
2021/07/28 13:58:19;;;;;;;7.08;6.48;;;;;;;32.34;41.61;99218.22;253672;1097;115919;-69
2021/07/28 14:03:23;;;;;;;7.70;6.90;;;;;;;32.30;41.08;99211.91;253622;1101;116151;-70
2021/07/28 14:08:28;;;;;;;87.68;14.40;;;;;;;32.21;41.94;99202.41;253666;1096;119100;-69
2021/07/28 14:13:33;;;;;;;8.68;7.80;;;;;;;31.93;41.31;99200.39;253847;1103;116929;-68
2021/07/28 14:18:38;;;;;;;7.35;6.65;;;;;;;31.68;42.47;99192.86;256821;1104;119932;-68
2021/07/28 14:23:43;;;;;;;6.88;6.35;;;;;;;31.56;43.92;99190.42;255208;1101;116677;-68
2021/07/28 14:28:47;;;;;;;9.23;7.20;;;;;;;31.60;44.54;99191.22;253932;1103;117127;-67
2021/07/28 14:33:55;;;;;;;7.88;7.08;;;;;;;31.58;42.98;99190.81;253880;1104;116541;-68
2021/07/28 14:39:01;;;;;;;8.53;6.58;;;;;;;31.52;42.58;99192.36;253849;1103;116506;-68
2021/07/28 14:44:06;;;;;;;11.65;7.78;;;;;;;31.38;42.89;99184.85;253689;1103;114854;-68
2021/07/28 14:49:12;;;;;;;8.40;7.20;;;;;;;31.26;42.85;99189.90;254685;1104;115131;-70
2021/07/28 14:54:18;;;;;;;8.60;7.20;;;;;;;31.16;44.54;99183.19;253780;1103;115750;-68
2021/07/28 14:59:23;;;;;;;8.00;7.33;;;;;;;31.01;46.88;99181.48;254768;1102;115922;-69
2021/07/28 15:04:28;;;;;;;7.70;7.03;;;;;;;30.82;47.05;99171.56;253868;1103;116088;-68
2021/07/28 15:09:33;;;;;;;8.23;6.78;;;;;;;30.59;47.64;99170.98;253714;1104;116014;-70
2021/07/28 15:14:38;;;;;;;7.60;6.90;;;;;;;30.43;48.34;99168.50;253675;1099;116047;-69
2021/07/28 15:19:42;;;;;;;;;;;;;;;30.28;49.44;99153.04;254001;1103;116744;-69
2021/07/28 15:24:48;;;;;;;8.38;7.43;;;;;;;30.11;50.39;99151.73;254541;1101;103578;-69
2021/07/28 15:29:52;;;;;;;10.63;7.50;;;;;;;29.98;50.86;99148.44;253770;1104;117769;-68
2021/07/28 15:34:58;;;;;;;8.78;7.95;;;;;;;29.88;51.03;99140.11;254171;1103;114961;-69
2021/07/28 15:40:11;;;;;;;7.85;7.25;;;;;;;29.80;51.48;99129.05;253679;1104;116714;-69
2021/07/28 15:45:17;;;;;;;10.78;7.73;;;;;;;29.70;52.28;99126.19;254874;1103;115659;-68
2021/07/28 15:50:27;;;;;;;9.55;7.68;;;;;;;29.61;53.21;99129.25;253558;1103;115471;-68
2021/07/28 15:55:31;;;;;;;9.43;8.67;;;;;;;29.50;53.80;99133.83;253722;1104;114746;-69
2021/07/28 16:00:36;;;;;;;9.63;8.65;;;;;;;29.31;54.69;99125.75;253665;1101;114867;-69
2021/07/28 16:05:41;;;;;;;9.45;8.65;;;;;;;29.16;55.75;99120.08;253738;1102;114740;-69
2021/07/28 16:10:45;;;;;;;9.82;8.62;;;;;;;29.04;56.00;99144.23;253626;1104;117351;-69
2021/07/28 16:15:52;;;;;;;6.75;6.05;;;;;;;28.77;54.82;99185.36;253609;1104;114565;-68
2021/07/28 16:20:56;;;;;;;6.58;5.60;;;;;;;28.33;52.07;99197.98;254763;1103;115141;-70
2021/07/28 16:26:00;;;;;;;11.58;4.70;;;;;;;27.79;50.24;99202.48;253754;1102;114861;-70
2021/07/28 16:31:04;;;;;;;15.20;4.63;;;;;;;27.04;50.66;99243.88;253978;1102;115822;-69
2021/07/28 16:36:08;;;;;;;6.63;4.53;;;;;;;26.09;51.72;99324.18;257116;1101;114886;-69
2021/07/28 16:41:13;;;;;;;6.50;4.60;;;;;;;24.94;53.27;99379.08;257020;1103;115327;-71
2021/07/28 16:46:18;;;;;;;7.17;6.47;;;;;;;24.05;55.67;99394.19;257136;1102;115237;-69
2021/07/28 16:51:22;;;;;;;9.23;6.60;;;;;;;23.59;58.32;99367.91;257227;1102;116026;-68
2021/07/28 16:56:26;;;;;;;6.50;5.40;;;;;;;23.40;59.55;99344.64;257116;1102;116533;-69
2021/07/28 17:43:23;;;;;;;7.73;7.03;;;;;;;22.12;66.64;99290.41;261328;1092;103084;-70
2021/07/28 17:48:26;;;;;;;7.13;6.53;;;;;;;22.18;67.16;99280.98;257618;1104;116451;-70
2021/07/28 17:53:29;;;;;;;11.90;7.37;;;;;;;22.21;67.49;99271.40;256968;1104;116302;-69
2021/07/28 17:58:32;;;;;;;7.37;6.77;;;;;;;22.35;67.69;99277.42;257309;1104;116519;-70
2021/07/28 18:03:35;;;;;;;7.93;6.43;;;;;;;22.32;68.03;99280.78;257418;1104;115502;-69
2021/07/28 18:08:38;;;;;;;8.55;7.78;;;;;;;22.46;68.26;99308.55;257304;1104;116765;-68
2021/07/28 18:13:41;;;;;;;12.20;7.70;;;;;;;22.54;68.18;99298.00;254410;1104;115963;-69
2021/07/28 18:18:44;;;;;;;8.50;7.53;;;;;;;22.54;68.25;99325.95;253595;1104;114958;-69
2021/07/28 18:23:46;;;;;;;19.33;15.33;;;;;;;22.55;68.08;99324.03;253772;1099;115071;-68
2021/07/28 18:28:49;;;;;;;11.07;9.97;;;;;;;22.51;68.27;99315.73;253935;1104;115778;-67
2021/07/28 18:33:53;;;;;;;9.55;8.63;;;;;;;22.48;68.45;99314.46;253475;1104;115993;-69
2021/07/28 18:38:57;;;;;;;8.33;7.53;;;;;;;22.49;68.46;99313.34;253608;1104;115785;-67
2021/07/28 18:44:01;;;;;;;9.60;7.70;;;;;;;22.48;68.53;99314.46;253968;1104;116617;-70
2021/07/28 18:49:03;;;;;;;9.53;8.00;;;;;;;22.43;68.53;99317.34;255148;1104;115830;-67
2021/07/28 18:54:07;;;;;;;9.38;7.88;;;;;;;22.40;68.58;99315.27;253698;1104;115789;-69
2021/07/28 18:59:13;;;;;;;9.17;8.13;;;;;;;22.38;68.83;99320.23;257406;1104;115900;-68
2021/07/28 19:04:16;;;;;;;11.95;8.00;;;;;;;22.31;69.12;99336.23;257253;1104;115711;-67
2021/07/28 19:09:19;;;;;;;8.13;7.40;;;;;;;22.32;69.42;99337.80;257226;1104;115933;-68
2021/07/28 19:14:22;;;;;;;8.70;7.90;;;;;;;22.26;69.18;99344.55;257150;1104;117173;-68
2021/07/28 19:19:26;;;;;;;8.50;7.58;;;;;;;22.29;69.47;99343.11;255125;1104;117063;-68
2021/07/28 19:24:31;;;;;;;9.08;8.03;;;;;;;22.32;69.62;99343.23;253659;1104;116084;-68
2021/07/28 19:29:36;;;;;;;9.18;8.35;;;;;;;22.30;69.57;99344.70;253822;1097;116821;-67
2021/07/28 19:34:40;;;;;;;8.50;7.60;;;;;;;22.24;69.87;99335.91;255535;1104;116273;-69
2021/07/28 19:39:43;;;;;;;9.38;8.25;;;;;;;22.18;70.08;99332.56;253807;1104;115994;-68
2021/07/28 19:44:47;;;;;;;9.83;8.40;;;;;;;22.09;70.11;99339.11;253751;1104;115593;-67
2021/07/28 19:49:50;;;;;;;8.48;7.68;;;;;;;21.98;70.08;99338.63;253701;1104;116669;-68
2021/07/28 19:54:55;;;;;;;11.95;7.30;;;;;;;21.73;70.56;99334.76;253789;1099;116575;-67
2021/07/28 19:59:59;;;;;;;12.40;7.58;;;;;;;21.50;71.18;99349.57;253500;1104;115842;-69
2021/07/28 20:05:03;;;;;;;;;;;;;;;21.38;71.13;99354.83;256380;1104;115254;-68
2021/07/28 20:10:09;;;;;;;8.17;7.47;;;;;;;21.27;71.77;99361.64;257912;1104;104609;-68
2021/07/28 20:15:14;;;;;;;10.03;8.67;;;;;;;21.39;72.05;99375.41;257077;1104;117834;-70
2021/07/28 20:20:18;;;;;;;9.60;8.53;;;;;;;21.53;72.35;99386.91;257260;1104;116726;-70
2021/07/28 20:25:22;;;;;;;12.28;8.88;;;;;;;21.66;72.38;99407.70;257134;1104;116042;-70
2021/07/28 20:30:30;;;;;;;12.40;9.18;;;;;;;21.71;72.48;99412.15;257066;1104;115753;-71
2021/07/28 20:35:35;;;;;;;8.10;7.35;;;;;;;21.74;72.33;99398.76;256565;1104;115638;-71
2021/07/28 20:40:39;;;;;;;10.27;8.67;;;;;;;21.74;72.41;99390.62;253992;1104;116325;-67
2021/07/28 20:45:43;;;;;;;10.28;7.93;;;;;;;21.70;72.34;99397.81;253830;1104;115948;-70
2021/07/28 20:50:47;;;;;;;9.10;8.30;;;;;;;21.66;72.11;99386.00;253702;1104;115987;-70
2021/07/28 20:55:50;;;;;;;10.00;7.93;;;;;;;21.63;72.25;99397.47;253775;1104;115521;-68
2021/07/28 21:00:54;;;;;;;8.68;7.70;;;;;;;21.60;72.51;99381.83;254000;1104;116318;-66
2021/07/28 21:05:59;;;;;;;8.70;8.00;;;;;;;21.55;72.38;99373.84;254855;1103;116800;-68
2021/07/28 21:11:05;;;;;;;8.18;7.58;;;;;;;21.52;72.36;99369.04;255925;1104;114274;-68
2021/07/28 21:16:09;;;;;;;8.37;7.27;;;;;;;21.40;72.13;99366.92;255660;1104;115297;-68
2021/07/28 21:21:13;;;;;;;7.70;6.83;;;;;;;21.26;72.61;99365.47;255770;1104;114961;-66
2021/07/28 21:26:16;;;;;;;8.33;7.43;;;;;;;21.06;72.17;99359.48;256384;1096;114947;-68
2021/07/28 21:31:19;;;;;;;8.60;7.87;;;;;;;20.94;72.36;99361.16;254670;1104;115446;-68
2021/07/28 21:36:26;;;;;;;8.30;7.65;;;;;;;20.98;72.74;99360.23;254653;1104;115654;-68
2021/07/28 21:41:30;;;;;;;16.83;7.73;;;;;;;21.00;72.62;99360.72;256228;1102;115413;-71
2021/07/28 21:46:35;;;;;;;9.40;7.73;;;;;;;21.03;72.50;99351.17;257192;1103;114532;-70
2021/07/28 21:51:41;;;;;;;;;;;;;;;21.05;72.71;99357.88;254231;1103;116565;-70
2021/07/28 21:56:54;;;;;;;9.10;8.23;;;;;;;20.99;72.33;99356.41;254530;1103;103083;-70
2021/07/28 22:02:02;;;;;;;8.45;7.38;;;;;;;20.91;72.65;99364.49;254927;1103;115835;-68
2021/07/28 22:07:06;;;;;;;8.20;7.38;;;;;;;20.89;72.22;99361.30;257296;1101;115808;-69
2021/07/28 22:12:10;;;;;;;9.77;7.07;;;;;;;20.89;72.61;99372.13;257149;1103;114869;-70
2021/07/28 22:17:14;;;;;;;7.90;7.25;;;;;;;20.80;72.45;99364.75;257321;1103;116022;-69
2021/07/28 22:22:21;;;;;;;9.10;8.07;;;;;;;20.75;72.27;99366.81;257176;1103;115147;-70
2021/07/28 22:27:24;;;;;;;7.35;6.38;;;;;;;20.76;72.54;99380.05;255814;1103;119420;-70
2021/07/28 22:32:29;;;;;;;7.18;6.58;;;;;;;20.67;72.40;99381.91;253768;1104;115620;-69
2021/07/28 22:37:32;;;;;;;7.40;5.97;;;;;;;20.61;72.60;99391.27;253710;1104;114608;-66
2021/07/28 22:42:37;;;;;;;8.28;7.40;;;;;;;20.57;72.47;99389.48;255329;1103;114815;-68
2021/07/28 22:47:40;;;;;;;7.17;6.40;;;;;;;20.50;72.48;99395.31;257319;1102;115877;-67
2021/07/28 22:58:05;;;;;;;11.00;6.98;;;;;;;20.38;72.92;99406.72;254686;1104;115154;-66
2021/07/28 23:08:30;;;;;;;8.25;7.45;;;;;;;20.20;73.02;99434.70;253892;1104;115611;-67
2021/07/28 23:13:36;;;;;;;7.80;7.23;;;;;;;20.17;73.09;99427.23;253998;1096;114325;-68
2021/07/28 23:18:39;;;;;;;8.38;7.68;;;;;;;20.19;73.04;99417.67;253780;1104;115701;-68
2021/07/28 23:23:44;;;;;;;8.03;7.23;;;;;;;20.14;73.02;99425.13;255759;1104;115153;-68
2021/07/28 23:28:48;;;;;;;8.87;7.90;;;;;;;20.15;73.39;99432.94;254245;1104;115083;-66
2021/07/28 23:33:51;;;;;;;9.30;7.18;;;;;;;20.03;73.37;99434.56;256502;1104;115455;-66
2021/07/28 23:38:54;;;;;;;8.57;7.77;;;;;;;20.02;73.66;99430.26;255563;1104;116189;-66
2021/07/28 23:43:58;;;;;;;11.97;8.60;;;;;;;20.06;73.77;99426.64;257143;1103;114442;-68
2021/07/28 23:49:02;;;;;;;8.53;7.33;;;;;;;20.12;73.46;99433.55;257092;1102;114744;-68
2021/07/28 23:54:10;;;;;;;9.00;8.10;;;;;;;20.12;73.60;99419.22;255360;1104;114952;-68
2021/07/28 23:59:18;;;;;;;12.53;8.28;;;;;;;20.05;72.87;99425.05;257169;1103;115791;-67
